Archival Weather

Abadan

Abadan, Iran (OIAA)

Report from: Tuesday, July 19, 2022 12:51 PM UTC
Current time: Tuesday, July 16, 2024 10:14 AM UTC

Current weather – Weather history – Daily summaries
Weather forecast

Temperature51.0°C (123.8°F)
Heat index44.9°C (112.9°F)
Dew point1.0°C (33.8°F)
Winds 10 kts (5.1 m/s, 11.5 mph) Northwest (310°)
Clouds Sky clear
Altimeter29.35 in.Hg (994 mB)
Relative humidity5 %
Density altitude4,702 ft. (1,433 m)
Remarks Ceiling and visibility OK
No significant changes expected in the next two hours
Flight conditions Visual Meteorological Conditions
Raw dataOIAA 191251Z 31010KT CAVOK 51/01 Q0994 NOSIG
An error has occurred. This application may no longer respond until reloaded. Reload 🗙